Time;durP1;ratioP1;P1;durP2;ratioP2;P2;SDS_P1;SDS_P2;PMS_P1;PMS_P2;Temp;Humidity;BMP_temperature;BMP_pressure;BME280_temperature;BME280_humidity;BME280_pressure;Samples;Min_cycle;Max_cycle;Signal;HPM_P1;HPM_P2
2022/05/14 00:00:28;;;;;;;5.00;2.60;;;;;;;16.75;57.76;98439.72;1755587;80;28066;-84
2022/05/14 00:02:56;;;;;;;6.33;2.30;;;;;;;16.73;58.07;98438.53;1746977;80;28036;-88
2022/05/14 00:05:25;;;;;;;8.35;2.30;;;;;;;16.61;58.35;98439.20;1769519;80;28089;-87
2022/05/14 00:07:54;;;;;;;7.67;2.10;;;;;;;16.46;58.54;98439.78;1767955;80;28066;-87
2022/05/14 00:10:23;;;;;;;5.15;2.70;;;;;;;16.47;58.87;98438.81;1770655;80;28092;-87
2022/05/14 00:13:04;;;;;;;6.22;2.30;;;;;;;16.49;59.13;98444.27;1768223;80;28177;-87
2022/05/14 00:15:33;;;;;;;6.17;2.65;;;;;;;16.49;59.40;98448.72;1760241;80;28097;-83
2022/05/14 00:18:04;;;;;;;2.92;1.90;;;;;;;16.43;59.67;98451.45;1772131;78;28045;-84
2022/05/14 00:20:38;;;;;;;11.25;2.40;;;;;;;16.39;59.85;98458.00;1759449;80;28073;-84
2022/05/14 00:23:05;;;;;;;4.83;2.25;;;;;;;16.30;59.96;98454.91;1733870;81;28155;-84
2022/05/14 00:25:34;;;;;;;3.62;2.30;;;;;;;16.22;60.14;98452.13;1733291;81;28125;-84
2022/05/14 00:28:04;;;;;;;8.03;2.47;;;;;;;16.17;60.29;98459.64;1725611;82;28139;-87
2022/05/14 00:30:32;;;;;;;5.22;2.35;;;;;;;16.12;60.42;98455.28;1733788;81;28101;-87
2022/05/14 00:33:05;;;;;;;5.25;2.37;;;;;;;16.10;60.56;98458.05;1716370;81;28077;-84
2022/05/14 00:35:32;;;;;;;8.63;2.37;;;;;;;16.07;60.66;98458.83;1708320;83;28076;-84
2022/05/14 00:38:01;;;;;;;7.17;2.67;;;;;;;15.95;60.74;98455.50;1732766;81;28194;-84
2022/05/14 00:40:36;;;;;;;9.10;2.50;;;;;;;15.94;60.98;98460.91;1715868;81;28088;-83
2022/05/14 00:43:02;;;;;;;5.33;2.37;;;;;;;15.90;61.14;98455.92;1730871;81;28054;-83
2022/05/14 00:45:33;;;;;;;5.97;2.55;;;;;;;15.80;61.23;98453.78;1730043;81;27998;-84
2022/05/14 00:48:00;;;;;;;8.15;2.67;;;;;;;15.78;61.39;98455.72;1734089;81;28099;-88
2022/05/14 00:50:56;;;;;;;4.45;2.60;;;;;;;15.69;61.68;98456.56;1733249;81;28056;-85
2022/05/14 00:53:28;;;;;;;9.58;3.05;;;;;;;15.62;61.88;98455.92;1732957;81;28075;-84
2022/05/14 00:55:57;;;;;;;3.62;2.25;;;;;;;15.46;62.27;98448.03;1733102;81;28076;-83
2022/05/14 00:58:33;;;;;;;5.05;3.02;;;;;;;15.45;62.52;98452.13;1698313;83;28067;-83
2022/05/14 01:00:59;;;;;;;5.92;2.60;;;;;;;15.49;62.88;98453.02;1712415;82;28040;-87
2022/05/14 01:03:25;;;;;;;5.53;2.67;;;;;;;15.48;63.13;98455.34;1719306;82;28292;-84
2022/05/14 01:05:55;;;;;;;8.20;3.47;;;;;;;15.39;63.27;98450.87;1715057;81;46071;-85
2022/05/14 01:08:29;;;;;;;7.15;2.87;;;;;;;15.31;63.44;98448.09;1719280;81;28121;-83
2022/05/14 01:10:57;;;;;;;4.97;2.60;;;;;;;15.38;63.80;98451.02;1731633;80;28158;-84
2022/05/14 01:13:24;;;;;;;4.40;2.77;;;;;;;15.41;64.05;98451.57;1715626;81;28158;-83
2022/05/14 01:15:59;;;;;;;6.95;2.77;;;;;;;15.44;64.25;98455.23;1705924;83;28033;-83
2022/05/14 01:18:32;;;;;;;4.47;2.40;;;;;;;15.45;64.40;98455.59;1720291;82;28008;-83
2022/05/14 01:21:23;;;;;;;7.05;2.50;;;;;;;15.41;64.63;98458.17;1703832;83;27999;-83
2022/05/14 01:27:10;;;;;;;4.53;3.10;;;;;;;15.29;65.14;98457.93;1716288;81;28063;-88
2022/05/14 01:29:38;;;;;;;5.25;2.67;;;;;;;15.20;65.47;98470.62;1735250;81;28074;-85
2022/05/14 01:32:04;;;;;;;5.72;3.08;;;;;;;15.12;65.75;98465.66;1739376;81;28065;-84
2022/05/14 01:34:33;;;;;;;7.65;2.85;;;;;;;15.00;65.96;98467.08;1741371;81;28058;-85
2022/05/14 01:37:00;;;;;;;6.30;2.62;;;;;;;14.89;66.08;98471.64;1723305;82;28052;-84
2022/05/14 01:39:27;;;;;;;6.12;2.98;;;;;;;14.80;66.29;98470.62;1716379;83;28098;-88
2022/05/14 01:41:54;;;;;;;5.65;2.72;;;;;;;14.72;66.46;98467.83;1712480;82;28072;-84
2022/05/14 01:44:22;;;;;;;6.83;3.00;;;;;;;14.64;66.60;98465.00;1726624;81;28087;-88
2022/05/14 01:46:47;;;;;;;5.25;2.67;;;;;;;14.58;66.79;98466.84;1748275;81;28065;-88
2022/05/14 01:49:17;;;;;;;3.50;2.47;;;;;;;14.53;66.96;98469.87;1737614;81;28043;-88
2022/05/14 01:51:43;;;;;;;5.97;3.10;;;;;;;14.49;67.13;98473.74;1720847;82;28070;-84
2022/05/14 01:54:10;;;;;;;6.10;3.15;;;;;;;14.43;67.31;98474.26;1744275;81;28162;-84
2022/05/14 01:56:36;;;;;;;9.95;4.67;;;;;;;14.42;67.54;98475.22;1718666;82;28012;-84
2022/05/14 01:59:02;;;;;;;7.08;2.55;;;;;;;14.34;67.71;98468.91;1717393;82;28123;-84
2022/05/14 02:01:33;;;;;;;8.00;2.98;;;;;;;14.28;67.96;98473.38;1719994;82;27999;-84
2022/05/14 02:04:03;;;;;;;6.20;2.95;;;;;;;14.22;68.20;98467.66;1730574;82;28054;-84
2022/05/14 02:06:33;;;;;;;4.40;2.80;;;;;;;14.18;68.48;98468.86;1733235;82;28199;-84
2022/05/14 02:09:08;;;;;;;3.92;2.75;;;;;;;14.11;68.78;98470.36;1721017;82;28097;-84
2022/05/14 02:11:35;;;;;;;9.93;3.08;;;;;;;14.08;69.13;98472.39;1727839;82;28171;-84
2022/05/14 02:14:01;;;;;;;6.37;2.92;;;;;;;14.02;69.38;98472.42;1716239;82;28145;-83
2022/05/14 02:16:28;;;;;;;8.25;2.87;;;;;;;14.03;69.75;98478.05;1713669;83;28009;-83
2022/05/14 02:18:55;;;;;;;6.00;3.17;;;;;;;14.04;70.07;98473.14;1718413;83;28078;-83
2022/05/14 02:21:24;;;;;;;6.95;2.65;;;;;;;14.03;70.39;98474.58;1717252;81;28126;-83
2022/05/14 02:23:49;;;;;;;7.12;2.95;;;;;;;14.01;70.75;98478.67;1716037;81;28081;-83
2022/05/14 02:26:15;;;;;;;6.62;2.95;;;;;;;14.00;71.06;98474.84;1743379;81;46078;-84
2022/05/14 02:28:41;;;;;;;6.28;2.58;;;;;;;13.99;71.38;98473.17;1716252;81;28157;-83
2022/05/14 02:31:08;;;;;;;6.08;2.55;;;;;;;14.00;71.76;98473.53;1721858;81;28037;-84
2022/05/14 02:33:47;;;;;;;6.20;2.27;;;;;;;13.98;72.07;98475.44;1733563;81;28034;-83
2022/05/14 02:36:13;;;;;;;5.03;2.47;;;;;;;13.98;72.47;98469.70;1726558;81;28076;-86
2022/05/14 02:38:40;;;;;;;6.87;2.58;;;;;;;13.96;72.81;98470.80;1739484;81;45025;-83
2022/05/14 02:41:08;;;;;;;6.25;2.75;;;;;;;13.92;73.06;98474.63;1709318;81;28060;-83
2022/05/14 02:43:38;;;;;;;4.67;2.65;;;;;;;13.89;73.41;98466.53;1730229;81;28072;-86
2022/05/14 02:46:04;;;;;;;4.22;2.58;;;;;;;13.89;73.74;98465.21;1733977;80;43081;-83
2022/05/14 02:48:31;;;;;;;3.55;2.90;;;;;;;13.88;74.05;98467.96;1718723;81;28139;-83
2022/05/14 02:51:00;;;;;;;6.95;3.17;;;;;;;13.82;74.28;98464.04;1732873;81;28077;-83
2022/05/14 02:53:28;;;;;;;5.67;2.92;;;;;;;13.78;74.56;98463.47;1727872;81;28012;-87
2022/05/14 02:55:54;;;;;;;6.65;2.50;;;;;;;13.67;74.79;98470.09;1729557;80;28087;-83
2022/05/14 03:01:07;;;;;;;4.75;2.65;;;;;;;13.56;75.49;98469.29;1708679;83;28041;-84
2022/05/14 03:03:33;;;;;;;5.03;2.77;;;;;;;13.56;75.83;98469.29;1732889;81;28117;-87
2022/05/14 03:06:00;;;;;;;5.75;3.02;;;;;;;13.53;76.26;98470.36;1722672;81;28068;-85
2022/05/14 03:08:27;;;;;;;7.58;2.90;;;;;;;13.49;76.62;98468.95;1728741;81;28068;-84
2022/05/14 03:10:53;;;;;;;7.45;2.75;;;;;;;13.40;76.84;98477.11;1730269;81;28078;-87
2022/05/14 03:13:19;;;;;;;8.00;2.77;;;;;;;13.30;77.08;98473.56;1733232;81;28047;-83
2022/05/14 03:15:48;;;;;;;8.93;2.98;;;;;;;13.22;77.34;98470.69;1734310;81;28145;-83
2022/05/14 03:18:14;;;;;;;6.33;3.42;;;;;;;13.20;77.76;98479.67;1731854;81;28124;-84
2022/05/14 03:20:43;;;;;;;8.95;3.05;;;;;;;13.12;78.08;98477.64;1729865;82;45092;-85
2022/05/14 03:23:09;;;;;;;6.35;3.33;;;;;;;13.10;78.47;98482.61;1730747;81;28016;-83
2022/05/14 03:25:36;;;;;;;3.75;2.72;;;;;;;13.08;78.89;98488.49;1732593;81;28103;-83
2022/05/14 03:28:02;;;;;;;5.35;2.87;;;;;;;13.03;79.21;98482.77;1726161;81;28119;-84
2022/05/14 03:30:28;;;;;;;5.62;3.08;;;;;;;12.99;79.55;98482.16;1734212;81;28002;-83
2022/05/14 03:33:00;;;;;;;9.40;2.83;;;;;;;13.01;79.91;98488.13;1735628;81;28069;-87
2022/05/14 03:35:29;;;;;;;10.23;2.85;;;;;;;13.02;80.26;98485.87;1736156;81;28017;-85
2022/05/14 03:37:55;;;;;;;8.38;2.77;;;;;;;13.10;80.70;98495.28;1736606;81;28094;-84
2022/05/14 03:40:28;;;;;;;4.92;2.55;;;;;;;13.12;81.03;98495.20;1729652;81;43135;-84
2022/05/14 03:42:55;;;;;;;4.15;2.58;;;;;;;13.13;81.36;98492.94;1730807;81;28069;-84
2022/05/14 03:45:22;;;;;;;5.72;3.30;;;;;;;13.11;81.60;98489.55;1735895;81;28147;-84
2022/05/14 03:47:48;;;;;;;6.33;2.87;;;;;;;13.10;81.83;98483.45;1716841;81;28111;-87
2022/05/14 03:50:16;;;;;;;4.87;2.83;;;;;;;13.12;82.06;98486.00;1717433;83;28056;-84
2022/05/14 03:52:44;;;;;;;5.78;2.42;;;;;;;13.15;82.29;98485.74;1731181;81;28197;-84
2022/05/14 03:55:11;;;;;;;4.28;2.52;;;;;;;13.21;82.59;98487.89;1722611;81;28060;-87
2022/05/14 03:57:42;;;;;;;6.80;2.52;;;;;;;13.26;82.90;98487.04;1712508;81;28041;-84
2022/05/14 04:00:11;;;;;;;;;;;;;;;13.33;83.25;98489.55;1708097;83;28043;-88
2022/05/14 04:02:39;;;;;;;5.25;2.17;;;;;;;13.45;83.65;98493.82;1722124;81;27237;-84
2022/05/14 04:05:08;;;;;;;5.70;2.77;;;;;;;13.51;84.06;98486.76;1700725;81;28091;-84
2022/05/14 04:07:34;;;;;;;3.50;2.08;;;;;;;13.52;84.26;98489.75;1714620;82;28079;-87
2022/05/14 04:10:00;;;;;;;7.45;2.10;;;;;;;13.63;84.64;98486.25;1709823;82;28029;-83
2022/05/14 04:12:27;;;;;;;4.47;2.47;;;;;;;13.73;84.95;98489.80;1714053;82;43068;-83
2022/05/14 04:14:53;;;;;;;6.17;3.15;;;;;;;13.83;85.26;98494.17;1711975;82;28057;-87
2022/05/14 04:17:20;;;;;;;4.37;2.30;;;;;;;13.94;85.59;98495.92;1714916;82;28131;-87
2022/05/14 04:19:46;;;;;;;6.62;2.20;;;;;;;14.01;85.78;98502.36;1708553;82;28060;-87
2022/05/14 04:22:12;;;;;;;4.10;2.62;;;;;;;14.08;85.94;98502.66;1712982;82;43014;-84
2022/05/14 04:24:38;;;;;;;7.55;2.37;;;;;;;14.16;86.18;98498.44;1707437;82;43057;-83
2022/05/14 04:27:04;;;;;;;6.03;3.47;;;;;;;14.25;86.25;98499.45;1711376;82;47316;-84
2022/05/14 04:29:30;;;;;;;4.20;2.58;;;;;;;14.30;86.31;98495.95;1714252;82;28024;-84
2022/05/14 04:31:57;;;;;;;6.20;2.95;;;;;;;14.37;86.26;98503.73;1710134;82;28181;-83
2022/05/14 04:34:25;;;;;;;5.30;2.45;;;;;;;14.36;86.15;98505.98;1709983;82;28133;-82
2022/05/14 04:36:51;;;;;;;6.55;2.40;;;;;;;14.36;86.03;98515.67;1711169;82;28130;-83
2022/05/14 04:39:17;;;;;;;4.47;2.42;;;;;;;14.34;85.90;98516.30;1708536;82;43120;-83
2022/05/14 04:41:43;;;;;;;6.03;2.62;;;;;;;14.31;85.79;98516.54;1708831;82;47941;-83
2022/05/14 04:44:11;;;;;;;5.80;2.30;;;;;;;14.34;85.84;98517.62;1699622;83;28268;-83
2022/05/14 04:46:39;;;;;;;5.78;2.47;;;;;;;14.36;85.96;98515.19;1714592;83;28075;-83
2022/05/14 04:49:05;;;;;;;3.90;2.60;;;;;;;14.36;85.96;98511.72;1715369;81;28118;-84
2022/05/14 04:51:34;;;;;;;2.90;2.35;;;;;;;14.37;86.09;98515.58;1712516;83;28078;-87
2022/05/14 04:54:01;;;;;;;4.42;2.45;;;;;;;14.38;86.15;98514.63;1725234;81;28114;-87
2022/05/14 04:56:27;;;;;;;5.08;2.37;;;;;;;14.44;86.25;98514.11;1707361;83;28087;-83
2022/05/14 04:58:53;;;;;;;4.22;2.92;;;;;;;14.47;86.31;98512.52;1710717;83;45940;-83
2022/05/14 05:01:21;;;;;;;4.42;2.20;;;;;;;14.55;86.62;98514.04;1710550;81;28001;-83
2022/05/14 05:03:50;;;;;;;6.25;3.02;;;;;;;14.60;86.83;98522.39;1714220;81;28111;-83
2022/05/14 05:06:18;;;;;;;5.33;2.30;;;;;;;14.64;86.89;98518.52;1710945;83;28179;-85
2022/05/14 05:08:44;;;;;;;5.83;3.33;;;;;;;14.66;86.85;98510.50;1710835;82;28079;-83
2022/05/14 05:11:14;;;;;;;6.97;3.20;;;;;;;14.72;86.96;98518.36;1704915;83;28050;-84
2022/05/14 05:13:40;;;;;;;6.35;3.08;;;;;;;14.72;87.12;98517.88;1714115;81;28079;-87
2022/05/14 05:16:12;;;;;;;2.95;2.30;;;;;;;14.65;87.09;98516.24;1733873;80;28139;-87
2022/05/14 05:18:39;;;;;;;6.37;2.85;;;;;;;14.60;87.05;98518.44;1736751;81;28058;-83
2022/05/14 05:21:07;;;;;;;4.00;2.45;;;;;;;14.57;87.07;98516.52;1728186;81;28166;-84
2022/05/14 05:23:41;;;;;;;7.03;3.55;;;;;;;14.57;87.40;98513.89;1731555;81;28088;-83
2022/05/14 05:26:20;;;;;;;7.10;3.87;;;;;;;14.64;87.77;98517.68;1729987;81;28084;-84
2022/05/14 05:28:47;;;;;;;6.90;4.05;;;;;;;14.75;87.77;98511.50;1735547;81;28089;-82
2022/05/14 05:31:13;;;;;;;6.97;3.87;;;;;;;14.90;87.88;98512.81;1732678;80;28069;-82
2022/05/14 05:33:39;;;;;;;7.03;3.47;;;;;;;14.96;87.77;98510.97;1738579;81;44003;-87
2022/05/14 05:36:07;;;;;;;7.17;3.72;;;;;;;15.10;87.90;98504.52;1732937;80;28060;-84
2022/05/14 05:38:33;;;;;;;6.20;3.42;;;;;;;15.18;87.85;98506.81;1732702;81;28099;-82
2022/05/14 05:40:59;;;;;;;6.72;3.22;;;;;;;15.25;87.64;98506.64;1713307;83;28196;-82
2022/05/14 05:43:26;;;;;;;5.67;3.25;;;;;;;15.23;87.01;98505.92;1743274;81;45563;-84
2022/05/14 05:45:56;;;;;;;7.47;3.70;;;;;;;15.28;86.74;98502.41;1698641;82;28165;-83
2022/05/14 05:48:23;;;;;;;6.28;3.25;;;;;;;15.27;86.38;98509.98;1727490;81;28135;-83
2022/05/14 05:50:53;;;;;;;6.37;3.55;;;;;;;15.21;85.63;98517.11;1708787;83;28015;-87
2022/05/14 05:56:46;;;;;;;10.60;3.10;;;;;;;15.20;85.23;98520.70;1703176;83;28033;-84
2022/05/14 05:58:49;;;;;;;6.58;3.42;;;;;;;15.19;84.51;98521.67;1732033;81;28092;-83
2022/05/14 06:01:25;;;;;;;6.30;3.30;;;;;;;15.22;84.40;98529.30;1733847;81;28091;-83
2022/05/14 06:03:51;;;;;;;10.53;3.72;;;;;;;15.25;84.18;98534.33;1734303;80;28153;-83
2022/05/14 06:06:25;;;;;;;5.95;3.10;;;;;;;15.26;83.89;98539.11;1725563;81;28072;-85
2022/05/14 06:08:51;;;;;;;7.42;3.17;;;;;;;15.27;83.97;98538.16;1729244;80;28006;-84
2022/05/14 06:11:18;;;;;;;8.58;3.58;;;;;;;15.27;83.88;98538.99;1733400;80;28050;-88
2022/05/14 06:13:44;;;;;;;9.40;4.50;;;;;;;15.26;83.70;98536.00;1727356;81;28158;-83
2022/05/14 06:16:14;;;;;;;6.42;3.25;;;;;;;15.28;83.65;98538.48;1736555;81;28057;-84
2022/05/14 06:18:44;;;;;;;7.62;3.02;;;;;;;15.29;83.45;98533.08;1739053;81;28064;-83
2022/05/14 06:21:11;;;;;;;3.80;2.72;;;;;;;15.30;83.40;98534.75;1746473;81;28022;-84
2022/05/14 06:23:37;;;;;;;7.00;3.22;;;;;;;15.35;83.44;98535.19;1734545;81;28133;-87
2022/05/14 06:26:03;;;;;;;5.50;3.33;;;;;;;15.38;83.46;98536.22;1743414;81;28175;-88
2022/05/14 06:28:29;;;;;;;7.25;3.55;;;;;;;15.40;83.43;98532.97;1736987;81;28084;-86
2022/05/14 06:30:57;;;;;;;5.37;3.22;;;;;;;15.40;83.15;98532.97;1747574;80;28155;-83
2022/05/14 06:33:26;;;;;;;4.45;3.27;;;;;;;15.40;82.85;98537.41;1742271;80;28108;-83
2022/05/14 06:35:53;;;;;;;8.05;2.77;;;;;;;15.42;82.70;98532.36;1740852;81;28112;-87
2022/05/14 06:38:19;;;;;;;7.80;3.70;;;;;;;15.49;82.51;98535.30;1744752;81;28072;-83
2022/05/14 06:40:46;;;;;;;5.30;2.83;;;;;;;15.56;82.56;98534.28;1721946;81;28073;-83
2022/05/14 06:43:15;;;;;;;3.45;2.58;;;;;;;15.64;82.83;98533.97;1720355;82;28091;-83
2022/05/14 06:45:43;;;;;;;6.22;2.60;;;;;;;15.72;82.79;98531.95;1741665;81;28073;-83
2022/05/14 06:48:10;;;;;;;7.90;2.70;;;;;;;15.77;82.57;98532.38;1738030;81;28042;-82
2022/05/14 06:50:48;;;;;;;4.95;2.92;;;;;;;15.82;82.47;98530.98;1727192;80;28175;-87
2022/05/14 06:53:19;;;;;;;5.97;2.70;;;;;;;15.91;82.52;98528.03;1738125;81;28465;-82
2022/05/14 06:55:48;;;;;;;3.95;2.40;;;;;;;15.98;82.42;98531.80;1734082;82;28093;-82
2022/05/14 06:58:19;;;;;;;6.03;2.90;;;;;;;16.07;82.27;98534.91;1711955;82;28177;-83
2022/05/14 07:00:46;;;;;;;5.87;2.27;;;;;;;16.14;82.03;98536.52;1716258;83;28122;-82
2022/05/14 07:08:50;;;;;;;5.92;2.08;;;;;;;16.28;81.18;98533.44;1748350;80;28116;-82
2022/05/14 07:11:20;;;;;;;5.67;2.10;;;;;;;16.41;81.14;98537.11;1742961;81;28061;-82
2022/05/14 07:13:47;;;;;;;3.55;1.90;;;;;;;16.53;80.92;98539.95;1743231;81;28073;-85
2022/05/14 07:16:12;;;;;;;6.75;2.40;;;;;;;16.62;80.75;98537.80;1738282;81;28137;-84
2022/05/14 07:18:38;;;;;;;5.85;2.00;;;;;;;16.73;80.66;98540.28;1690807;83;43070;-83
2022/05/14 07:21:16;;;;;;;3.67;1.42;;;;;;;16.81;80.61;98546.16;1722393;82;42174;-88
2022/05/14 07:23:43;;;;;;;3.45;1.70;;;;;;;16.84;80.01;98550.69;1724845;82;28114;-83
2022/05/14 07:26:10;;;;;;;5.62;1.70;;;;;;;16.87;79.03;98549.06;1724257;82;28200;-87
2022/05/14 07:28:37;;;;;;;2.98;1.60;;;;;;;16.94;78.22;98555.45;1711999;81;28125;-87
2022/05/14 07:31:09;;;;;;;3.95;2.17;;;;;;;17.01;77.38;98559.68;1726348;81;28110;-87
2022/05/14 07:33:37;;;;;;;6.72;2.67;;;;;;;17.04;76.50;98556.24;1721705;81;28096;-83
2022/05/14 07:36:07;;;;;;;5.08;1.98;;;;;;;17.08;75.92;98563.39;1722639;81;28180;-84
2022/05/14 07:38:36;;;;;;;7.50;2.65;;;;;;;17.10;75.34;98558.80;1720745;81;28147;-88
2022/05/14 07:41:04;;;;;;;4.65;1.75;;;;;;;17.13;74.93;98564.62;1712668;82;28129;-87
2022/05/14 07:43:36;;;;;;;4.75;1.77;;;;;;;17.20;75.12;98564.05;1726493;81;28104;-83
2022/05/14 07:46:06;;;;;;;4.72;1.80;;;;;;;17.26;74.93;98565.63;1716693;81;28177;-84
2022/05/14 07:48:35;;;;;;;4.03;1.77;;;;;;;17.33;74.84;98561.42;1708577;82;28139;-84
2022/05/14 07:51:04;;;;;;;3.98;1.80;;;;;;;17.36;74.52;98561.12;1695599;83;28120;-85
2022/05/14 07:53:31;;;;;;;2.92;1.40;;;;;;;17.38;74.33;98563.14;1717722;82;28103;-87
2022/05/14 07:55:58;;;;;;;4.90;1.85;;;;;;;17.39;73.76;98564.81;1687066;83;28027;-84
2022/05/14 07:58:25;;;;;;;3.20;1.80;;;;;;;17.43;73.30;98566.17;1693354;83;28072;-83
2022/05/14 08:00:54;;;;;;;4.70;1.90;;;;;;;17.49;73.38;98558.98;1722813;82;28078;-83
2022/05/14 08:03:24;;;;;;;7.65;1.70;;;;;;;17.55;72.88;98558.39;1699487;83;28086;-84
2022/05/14 08:05:55;;;;;;;3.70;1.60;;;;;;;17.60;72.20;98555.33;1690496;83;28079;-83
2022/05/14 08:08:21;;;;;;;;;;;;;;;17.64;71.89;98556.69;1723713;81;28152;-84
2022/05/14 08:10:55;;;;;;;5.25;2.05;;;;;;;17.67;71.10;98558.22;1689963;83;26611;-84
2022/05/14 08:13:34;;;;;;;2.70;1.30;;;;;;;17.73;70.68;98556.30;1704542;83;28060;-84
2022/05/14 08:15:59;;;;;;;4.40;1.82;;;;;;;17.77;69.88;98555.02;1712526;83;28033;-84
2022/05/14 08:18:29;;;;;;;4.05;1.40;;;;;;;17.81;69.40;98552.41;1707492;81;28068;-84
2022/05/14 08:20:56;;;;;;;3.62;1.40;;;;;;;17.87;69.07;98548.67;1706099;83;28091;-84
2022/05/14 08:26:12;;;;;;;4.03;1.70;;;;;;;18.10;68.57;98553.53;1714673;83;28138;-84
2022/05/14 08:28:38;;;;;;;7.15;1.95;;;;;;;18.20;68.18;98545.84;1709139;81;43053;-84
2022/05/14 08:31:05;;;;;;;7.90;1.80;;;;;;;18.26;67.87;98546.56;1711062;83;28143;-84
2022/05/14 08:33:37;;;;;;;6.37;2.02;;;;;;;18.25;67.23;98550.19;1707548;83;28088;-83
2022/05/14 08:36:04;;;;;;;4.37;2.02;;;;;;;18.28;66.73;98550.36;1705687;83;28092;-84
2022/05/14 08:38:30;;;;;;;2.60;1.42;;;;;;;18.29;65.88;98546.73;1708995;82;28111;-83
2022/05/14 08:40:59;;;;;;;3.83;1.60;;;;;;;18.38;65.55;98553.78;1705947;82;28154;-83
2022/05/14 08:43:28;;;;;;;2.98;1.55;;;;;;;18.47;65.04;98556.83;1709445;82;28104;-83
2022/05/14 08:45:57;;;;;;;3.58;2.10;;;;;;;18.62;64.95;98550.01;1710370;81;28065;-83
2022/05/14 08:48:27;;;;;;;3.05;2.20;;;;;;;18.72;64.49;98551.23;1711289;81;28101;-83
2022/05/14 08:51:14;;;;;;;7.25;2.58;;;;;;;18.76;63.60;98548.11;1705490;83;28071;-84
2022/05/14 08:53:42;;;;;;;5.50;2.17;;;;;;;18.90;62.92;98544.55;1697014;83;28219;-83
2022/05/14 08:56:21;;;;;;;7.85;2.30;;;;;;;18.95;62.13;98540.45;1694361;83;28084;-84
2022/05/14 08:58:57;;;;;;;4.97;3.20;;;;;;;19.00;61.66;98541.29;1707177;83;28090;-89
2022/05/14 09:01:28;;;;;;;7.15;3.60;;;;;;;19.05;61.48;98541.16;1706218;81;28177;-84
2022/05/14 09:03:54;;;;;;;;;;;;;;;19.15;61.33;98525.11;1717882;81;28108;-84
2022/05/14 09:06:21;;;;;;;10.30;3.90;;;;;;;19.17;60.59;98528.45;1708848;83;43542;-87
2022/05/14 09:08:47;;;;;;;6.12;3.40;;;;;;;19.11;59.94;98528.59;1706915;83;28169;-83
2022/05/14 09:11:21;;;;;;;8.10;3.20;;;;;;;19.07;59.31;98525.09;1704457;83;28072;-84
2022/05/14 09:13:54;;;;;;;6.50;2.98;;;;;;;19.08;58.92;98521.45;1710248;83;28009;-84
2022/05/14 09:16:24;;;;;;;7.58;2.85;;;;;;;19.10;58.47;98524.27;1703498;83;28026;-88
2022/05/14 09:18:53;;;;;;;10.25;3.25;;;;;;;19.15;58.29;98521.97;1739867;81;28061;-84
2022/05/14 09:21:25;;;;;;;4.90;2.20;;;;;;;19.21;57.89;98516.52;1744608;81;28107;-83
2022/05/14 09:24:00;;;;;;;3.90;2.05;;;;;;;19.23;57.36;98526.00;1741490;81;28042;-84
2022/05/14 09:26:37;;;;;;;6.70;2.67;;;;;;;19.27;57.04;98524.34;1731274;81;28156;-84
2022/05/14 09:29:28;;;;;;;4.20;2.17;;;;;;;19.35;56.93;98526.55;1715753;82;28138;-88
2022/05/14 09:32:00;;;;;;;5.15;2.00;;;;;;;19.38;56.64;98522.23;1738490;81;28103;-88
2022/05/14 09:34:28;;;;;;;4.50;2.17;;;;;;;19.31;55.85;98515.89;1743917;81;28082;-84
2022/05/14 09:37:01;;;;;;;2.75;1.98;;;;;;;19.27;55.25;98503.11;1725129;81;28074;-84
2022/05/14 09:39:28;;;;;;;6.85;2.80;;;;;;;19.30;55.03;98506.30;1711171;83;28024;-84
2022/05/14 09:41:57;;;;;;;3.85;2.40;;;;;;;19.31;54.73;98503.95;1709643;82;28064;-84
2022/05/14 09:44:26;;;;;;;3.95;2.20;;;;;;;19.36;54.59;98504.33;1742697;80;28111;-82
2022/05/14 09:46:59;;;;;;;5.05;1.70;;;;;;;19.44;54.53;98500.85;1716449;83;28158;-82
2022/05/14 09:49:29;;;;;;;2.80;1.40;;;;;;;19.49;54.26;98502.06;1702255;83;28072;-83
2022/05/14 09:52:02;;;;;;;4.42;1.42;;;;;;;19.53;54.01;98496.76;1707081;81;28095;-83
2022/05/14 09:54:34;;;;;;;4.85;1.70;;;;;;;19.59;53.71;98491.30;1715762;81;28090;-83
2022/05/14 09:57:38;;;;;;;4.53;1.10;;;;;;;19.75;53.50;98497.97;1731558;81;28051;-83
2022/05/14 10:00:23;;;;;;;3.75;1.62;;;;;;;19.93;53.62;98500.00;1719956;82;28087;-83
2022/05/14 10:03:16;;;;;;;3.85;1.85;;;;;;;19.97;53.33;98496.01;1753555;81;28096;-84
2022/05/14 10:05:58;;;;;;;2.90;1.37;;;;;;;19.91;52.67;98505.96;1728635;81;28161;-84
2022/05/14 10:08:34;;;;;;;3.83;1.27;;;;;;;19.91;52.56;98499.84;1736884;80;28107;-83
2022/05/14 10:11:31;;;;;;;6.85;2.05;;;;;;;20.02;52.65;98498.16;1732753;80;28148;-87
2022/05/14 10:14:07;;;;;;;5.83;2.27;;;;;;;20.05;52.39;98494.70;1750204;80;28142;-83
2022/05/14 10:17:02;;;;;;;4.25;1.90;;;;;;;20.07;51.89;98496.38;1709305;83;28143;-85
2022/05/14 10:19:55;;;;;;;3.92;2.05;;;;;;;20.21;52.01;98487.72;1704228;82;28010;-88
2022/05/14 10:29:02;;;;;;;2.85;1.35;;;;;;;20.35;51.36;98488.40;1729971;80;28106;-84
2022/05/14 10:31:41;;;;;;;2.77;1.52;;;;;;;20.45;51.36;98483.77;1736263;80;27997;-84
2022/05/14 10:34:19;;;;;;;4.30;1.80;;;;;;;20.57;51.36;98475.75;1729114;81;27989;-84
2022/05/14 10:36:53;;;;;;;4.62;1.80;;;;;;;20.69;51.40;98481.55;1728626;81;28489;-83
2022/05/14 10:39:41;;;;;;;4.17;1.70;;;;;;;20.77;51.04;98477.05;1739206;80;28084;-84
2022/05/14 10:42:23;;;;;;;3.20;1.57;;;;;;;20.81;50.89;98469.55;1733888;81;28171;-84
2022/05/14 10:44:56;;;;;;;4.22;1.92;;;;;;;20.85;50.74;98466.38;1740769;80;28087;-84
2022/05/14 10:47:24;;;;;;;4.50;1.80;;;;;;;20.90;50.48;98459.20;1708363;82;28076;-84
2022/05/14 10:49:57;;;;;;;4.47;1.50;;;;;;;20.87;50.21;98451.58;1709222;81;28068;-83
2022/05/14 10:52:24;;;;;;;6.28;1.67;;;;;;;20.90;50.17;98443.23;1746192;81;28084;-83
2022/05/14 10:54:51;;;;;;;3.47;1.85;;;;;;;20.90;49.75;98441.91;1740278;80;28110;-83
2022/05/14 10:57:21;;;;;;;3.45;1.77;;;;;;;20.92;49.67;98449.72;1741003;81;28175;-83
2022/05/14 10:59:53;;;;;;;2.80;1.40;;;;;;;20.96;49.46;98439.89;1722695;81;28092;-88
2022/05/14 11:02:29;;;;;;;6.50;1.40;;;;;;;21.03;49.67;98442.20;1740606;81;28079;-84
2022/05/14 11:04:56;;;;;;;2.85;1.40;;;;;;;20.96;49.29;98435.06;1704056;81;28067;-87
2022/05/14 11:07:37;;;;;;;3.25;1.45;;;;;;;20.82;48.94;98440.63;1708427;82;28186;-83
2022/05/14 11:10:10;;;;;;;2.70;1.42;;;;;;;20.72;48.72;98442.16;1715372;81;28092;-84
2022/05/14 11:12:41;;;;;;;3.17;1.30;;;;;;;20.73;48.90;98436.34;1739292;80;28005;-85
2022/05/14 11:15:27;;;;;;;6.17;1.62;;;;;;;20.65;48.45;98433.69;1744764;81;28164;-84
2022/05/14 11:18:09;;;;;;;5.15;1.45;;;;;;;20.73;48.63;98431.02;1718100;82;28120;-83
2022/05/14 11:20:37;;;;;;;1.90;1.30;;;;;;;20.91;48.49;98419.62;1705875;82;28175;-83
2022/05/14 11:23:09;;;;;;;2.77;1.50;;;;;;;21.01;48.22;98430.89;1721315;81;28089;-83
2022/05/14 11:25:37;;;;;;;2.77;1.42;;;;;;;21.00;47.83;98416.45;1707841;83;28072;-83
2022/05/14 11:28:15;;;;;;;2.72;1.30;;;;;;;21.05;47.74;98412.77;1714744;81;28130;-83
2022/05/14 11:30:50;;;;;;;2.72;1.22;;;;;;;21.17;47.77;98412.71;1709160;82;28108;-83
2022/05/14 11:33:31;;;;;;;3.67;1.22;;;;;;;21.34;47.98;98408.95;1715319;83;28147;-82
2022/05/14 11:36:07;;;;;;;2.65;1.20;;;;;;;21.46;47.93;98416.05;1743434;80;28148;-83
2022/05/14 11:38:39;;;;;;;4.12;1.50;;;;;;;21.46;47.77;98415.55;1695498;82;28083;-84
2022/05/14 11:41:15;;;;;;;3.35;1.60;;;;;;;21.60;47.82;98412.64;1700403;82;28101;-84
2022/05/14 11:43:48;;;;;;;5.25;1.27;;;;;;;21.63;47.39;98414.44;1701193;82;28055;-84
2022/05/14 11:46:29;;;;;;;3.37;1.60;;;;;;;21.66;47.08;98411.90;1711314;81;28080;-84
2022/05/14 11:49:14;;;;;;;4.25;1.20;;;;;;;21.66;46.90;98421.23;1721395;81;28228;-84
2022/05/14 11:52:06;;;;;;;3.35;1.30;;;;;;;21.67;46.67;98405.58;1703839;82;28015;-84
2022/05/14 11:55:00;;;;;;;1.85;1.25;;;;;;;21.65;46.50;98415.09;1714575;81;28125;-84
2022/05/14 11:57:30;;;;;;;3.87;1.55;;;;;;;21.41;45.89;98411.75;1738339;81;28079;-85
2022/05/14 12:00:15;;;;;;;2.45;1.10;;;;;;;21.39;46.16;98406.59;1711416;82;28108;-84
2022/05/14 12:02:57;;;;;;;2.58;1.07;;;;;;;21.41;46.09;98403.77;1676790;80;27994;-85
2022/05/14 12:05:24;;;;;;;;;;;;;;;21.44;46.32;98408.75;1746399;80;28138;-85
2022/05/14 12:08:13;;;;;;;3.92;1.50;;;;;;;21.44;46.37;98398.11;1733813;80;24601;-85
2022/05/14 12:10:49;;;;;;;5.65;1.22;;;;;;;21.42;46.22;98394.78;1736048;80;28010;-85
2022/05/14 12:13:37;;;;;;;5.17;1.37;;;;;;;21.61;46.42;98389.80;1738333;80;28176;-84